• Join FlightAware (Why Join?)
  • Login
  • US Flag 
07:54PM EDT


 

Airport Tracker/Info


-or-


 

Live Flight TrackerFlight Track Log ✈ AWE3794 ✈ 25-Apr-2013 ✈ KCLE - KPHL

Flight Track Log - Related Links

Times and Time Zones

All times are in EDT time to prevent confusion due to time zone crossing. See the AWE3794 flight status page for this flight to view local times or setup timezone preferences in your user account.

Time Position Orientation Groundspeed Altitude Reporting Facility
EDT Latitude Longitude Course Direction KTS MPH feet Rate Location/Type
09:32AM 41.3919 -81.8756 114° Southeast 158 182 2,200  Level Cleveland Center
09:33AM 41.3669 -81.8753 180° South 178 205 3,200 2,460 Climbing Cleveland Center
09:34AM 41.3108 -81.8575 167° South 208 239 6,100 2,640 Climbing Cleveland Center
09:35AM 41.2460 -81.5084 124° Southeast  Level FlightAware Approximate
09:35AM 41.2764 -81.7656 116° Southeast 220 253 8,700  Level Cleveland Center
09:36AM 41.1906 -81.3977 124° Southeast  Level FlightAware Approximate
09:36AM 41.2483 -81.6547 109° East 265 305 11,000  Level Cleveland Center
09:37AM 41.1352 -81.2871 124° Southeast  Level FlightAware Approximate
09:37AM 41.2139 -81.5381 111° Southeast 308 354 13,600  Level Cleveland Center
09:38AM 41.0897 -81.1690 114° Southeast  Level FlightAware Approximate
09:38AM 41.1814 -81.4411 114° Southeast 332 382 15,400  Level Cleveland Center
09:40AM 41.0933 -81.1589 112° Southeast 379 436 19,500 1,860 Climbing Cleveland Center
09:41AM 41.0586 -81.0208 108° East 390 449 21,000 1,500 Climbing Cleveland Center
09:42AM 41.0172 -80.8775 111° Southeast 395 455 22,600 1,440 Climbing Cleveland Center
09:43AM 40.9758 -80.7344 111° Southeast 406 467 23,900 1,200 Climbing Cleveland Center
09:44AM 40.9364 -80.5886 110° East 413 475 25,000 540 Climbing Cleveland Center
09:45AM 40.8925 -80.4375 111° Southeast 429 494 25,000  Level Cleveland Center
09:46AM 40.8506 -80.3058 113° Southeast 434 499 25,000  Level Cleveland Center
09:47AM 40.8064 -80.1581 112° Southeast 434 499 25,000  Level Cleveland Center
09:48AM 40.7558 -80.0211 116° Southeast 422 486 25,000  Level Cleveland Center
09:49AM 40.7028 -79.8764 116° Southeast 422 486 25,000  Level Cleveland Center
09:50AM 40.6519 -79.7347 115° Southeast 422 486 25,000  Level Cleveland Center
09:51AM 40.5986 -79.5878 116° Southeast 422 486 25,000  Level Cleveland Center
09:52AM 40.5450 -79.4411 116° Southeast 427 491 25,000  Level Cleveland Center
09:53AM 40.4831 -79.2836 117° Southeast 427 491 25,000  Level Cleveland Center
09:54AM 40.4292 -79.1375 116° Southeast 438 504 25,000  Level Cleveland Center
09:55AM 40.3772 -78.9969 116° Southeast 438 504 25,000  Level Cleveland Center
09:56AM 40.3228 -78.8483 116° Southeast 443 510 25,000  Level Cleveland Center
09:57AM 40.3139 -78.6825 94° East 437 503 25,000  Level Cleveland Center
09:58AM 40.3153 -78.5108 89° East 452 520 25,000  Level Cleveland Center
10:00AM 40.3133 -78.1675 90° East 471 542 25,000  Level New York Center
10:01AM 40.3114 -77.9956 91° East 476 548 25,000  Level New York Center
10:02AM 40.3114 -77.8242 90° East 476 548 25,000 -660 Level New York Center
10:03AM 40.3122 -77.6689 90° East 482 555 23,800 -1,380 Descending New York Center
10:04AM 40.3094 -77.4997 91° East 472 543 22,400 -1,380 Descending New York Center
10:05AM 40.3081 -77.3392 91° East 458 527 21,000 -1,440 Descending New York Center
10:06AM 40.3028 -77.1697 92° East 436 502 19,500 -1,560 Descending New York Center
10:07AM 40.2914 -77.0300 96° East 396 456 18,000 -1,320 Descending New York Center
10:08AM 40.2614 -76.8883 105° East 387 445 17,000 -1,200 Descending New York Center
10:09AM 40.2319 -76.7717 108° East 382 440 15,600 -1,260 Descending New York Center
10:10AM 40.2031 -76.6386 106° East 382 440 14,500 -1,200 Descending New York Center
10:11AM 40.1683 -76.4969 108° East 377 434 13,300 -1,140 Descending New York Center
10:12AM 40.1372 -76.3708 108° East 378 435 12,400 -960 Descending FAA TRACON SMA TRACON (SMA)
10:13AM 40.1189 -76.2906 107° East 367 422 11,800 -960 Descending FAA TRACON SMA TRACON (SMA)
10:13AM 40.1181 -76.2514 92° East 350 403 11,500 -1,080 Descending FAA TRACON SMA TRACON (SMA)
10:13AM 40.1147 -76.2094 96° East 327 376 11,100 -1,080 Descending FAA TRACON SMA TRACON (SMA)
10:14AM 40.1119 -76.1717 95° East 309 356 10,800 -900 Descending FAA TRACON SMA TRACON (SMA)
10:14AM 40.1094 -76.1378 95° East 305 351 10,500 -1,080 Descending FAA TRACON SMA TRACON (SMA)
10:14AM 40.1072 -76.0992 94° East 306 352 10,100 -1,080 Descending FAA TRACON SMA TRACON (SMA)
10:15AM 40.1036 -76.0617 97° East 303 349 9,800 -1,080 Descending FAA TRACON SMA TRACON (SMA)
10:15AM 40.1022 -76.0289 93° East 302 348 9,400 -1,080 Descending FAA TRACON SMA TRACON (SMA)
10:15AM 40.0975 -75.9917 99° East 301 346 9,100 -1,080 Descending FAA TRACON SMA TRACON (SMA)
10:16AM 40.0967 -75.9533 92° East 301 346 8,700 -1,080 Descending FAA TRACON SMA TRACON (SMA)
10:16AM 40.0942 -75.9194 95° East 302 348 8,400 -1,080 Descending FAA TRACON SMA TRACON (SMA)
10:16AM 40.0900 -75.8803 98° East 301 346 8,000 -600 Descending FAA TRACON SMA TRACON (SMA)
10:17AM 40.0892 -75.8444 92° East 300 345 8,000  Level FAA TRACON SMA TRACON (SMA)
10:17AM 40.0869 -75.8119 95° East 295 339 8,000  Level FAA TRACON SMA TRACON (SMA)
10:17AM 40.0842 -75.7731 95° East 292 336 8,000  Level FAA TRACON SMA TRACON (SMA)
10:18AM 40.0800 -75.7056 95° East 296 341 8,000  Level FAA TRACON SMA TRACON (SMA)
10:18AM 40.0778 -75.6650 94° East 297 342 8,000  Level FAA TRACON SMA TRACON (SMA)
10:19AM 40.0764 -75.6308 93° East 283 326 8,000  Level FAA TRACON SMA TRACON (SMA)
10:19AM 40.0739 -75.5697 93° East 252 290 8,000 -300 Level FAA TRACON SMA TRACON (SMA)
10:20AM 40.0722 -75.5417 94° East 253 291 7,700 -900 Descending FAA TRACON SMA TRACON (SMA)
10:20AM 40.0708 -75.5108 93° East 254 292 7,400 -900 Descending FAA TRACON SMA TRACON (SMA)
10:20AM 40.0692 -75.4769 94° East 255 293 7,100 -600 Descending FAA TRACON SMA TRACON (SMA)
10:21AM 40.0678 -75.4475 94° East 253 291 7,000 -180 Descending FAA TRACON SMA TRACON (SMA)
10:21AM 40.0667 -75.4197 93° East 250 288 7,000  Level FAA TRACON SMA TRACON (SMA)
10:21AM 40.0653 -75.3861 93° East 251 289 7,000  Level FAA TRACON SMA TRACON (SMA)
10:22AM 40.0639 -75.3567 94° East 255 293 7,000 -180 Level FAA TRACON SMA TRACON (SMA)
10:22AM 40.0619 -75.3278 95° East 255 293 6,900 -600 Descending FAA TRACON SMA TRACON (SMA)
10:22AM 40.0600 -75.2917 94° East 254 292 6,600 -1,080 Descending FAA TRACON SMA TRACON (SMA)
10:23AM 40.0583 -75.2642 95° East 249 287 6,200 -1,080 Descending FAA TRACON SMA TRACON (SMA)
10:23AM 40.0569 -75.2367 94° East 247 284 5,900 -1,380 Descending FAA TRACON SMA TRACON (SMA)
10:23AM 40.0444 -75.2089 120° Southeast 244 281 5,300 -1,380 Descending FAA TRACON SMA TRACON (SMA)
10:24AM 40.0247 -75.1989 159° South 239 275 5,000 -480 Descending FAA TRACON SMA TRACON (SMA)
10:24AM 40.0058 -75.1933 167° South 218 251 5,000  Level FAA TRACON SMA TRACON (SMA)
10:24AM 39.9833 -75.1858 166° South 219 252 5,000  Level FAA TRACON SMA TRACON (SMA)
10:25AM 39.9711 -75.1678 131° Southeast 237 273 5,000  Level FAA TRACON SMA TRACON (SMA)
10:25AM 39.9708 -75.1450 91° East 203 234 5,000  Level FAA TRACON SMA TRACON (SMA)
10:25AM 39.9733 -75.1167 83° East 217 250 5,000  Level FAA TRACON SMA TRACON (SMA)
10:26AM 39.9750 -75.0911 85° East 214 246 5,000 -600 Level FAA TRACON SMA TRACON (SMA)
10:26AM 39.9769 -75.0658 84° East 217 250 4,600 -1,200 Descending FAA TRACON SMA TRACON (SMA)
10:26AM 39.9786 -75.0389 85° East 214 246 4,200 -1,380 Descending FAA TRACON SMA TRACON (SMA)
10:27AM 39.9683 -75.0161 120° Southeast 217 250 3,700 -1,380 Descending FAA TRACON SMA TRACON (SMA)
10:27AM 39.9517 -75.0075 158° South 228 262 3,300 -1,200 Descending FAA TRACON SMA TRACON (SMA)